Terminal Aerodrome Forecast
Issued by NWS

Home | Current Version | Previous Version | Graphics & Text | Print | Product List | Glossary On
Versions: 1 2 3 4 5 6 7 8 9 10 11 12 13 14 15 16
000
FTUS43 KGRB 271700
TAFATW
TAF
KATW 271733Z 2718/2818 VRB03KT P6SM SCT035
     FM272200 32003KT P6SM BKN120
     FM280000 VRB03KT P6SM SCT250
      TEMPO 2808/2812 4SM BR
     FM281300 12005KT P6SM SCT090 BKN250=

USA.gov is the U.S. government's official web portal to all federal, state and local government web resources and services.